sensor_id;sensor_type;location;lat;lon;timestamp;pressure;altitude;pressure_sealevel;temperature;humidity
36598;BME280;22607;49.550;11.940;2024-03-25T00:01:14;95764.75;;;4.52;100.00
36598;BME280;22607;49.550;11.940;2024-03-25T00:03:40;95764.94;;;4.59;100.00
36598;BME280;22607;49.550;11.940;2024-03-25T00:06:06;95751.13;;;4.58;100.00
36598;BME280;22607;49.550;11.940;2024-03-25T00:08:32;95753.72;;;4.50;100.00
36598;BME280;22607;49.550;11.940;2024-03-25T00:10:57;95753.56;;;4.68;100.00
36598;BME280;22607;49.550;11.940;2024-03-25T00:13:23;95760.25;;;4.63;100.00
36598;BME280;22607;49.550;11.940;2024-03-25T00:15:50;95767.38;;;4.60;100.00
36598;BME280;22607;49.550;11.940;2024-03-25T00:18:16;95762.84;;;4.63;100.00
36598;BME280;22607;49.550;11.940;2024-03-25T00:20:41;95767.56;;;4.67;100.00
36598;BME280;22607;49.550;11.940;2024-03-25T00:23:07;95762.66;;;4.47;100.00
36598;BME280;22607;49.550;11.940;2024-03-25T00:25:33;95755.34;;;4.59;100.00
36598;BME280;22607;49.550;11.940;2024-03-25T00:27:58;95764.78;;;4.69;100.00
36598;BME280;22607;49.550;11.940;2024-03-25T00:30:24;95777.31;;;4.73;100.00
36598;BME280;22607;49.550;11.940;2024-03-25T00:32:50;95766.72;;;4.67;100.00
36598;BME280;22607;49.550;11.940;2024-03-25T00:35:17;95756.50;;;4.57;100.00
36598;BME280;22607;49.550;11.940;2024-03-25T00:37:43;95763.50;;;4.65;100.00
36598;BME280;22607;49.550;11.940;2024-03-25T00:40:10;95780.72;;;4.66;100.00
36598;BME280;22607;49.550;11.940;2024-03-25T00:42:37;95769.19;;;4.77;100.00
36598;BME280;22607;49.550;11.940;2024-03-25T00:45:03;95769.50;;;4.82;100.00
36598;BME280;22607;49.550;11.940;2024-03-25T00:47:32;95777.00;;;4.60;100.00
36598;BME280;22607;49.550;11.940;2024-03-25T00:49:58;95763.97;;;4.68;100.00
36598;BME280;22607;49.550;11.940;2024-03-25T00:52:24;95762.69;;;4.72;100.00
36598;BME280;22607;49.550;11.940;2024-03-25T00:54:49;95745.94;;;4.58;100.00
36598;BME280;22607;49.550;11.940;2024-03-25T00:57:15;95756.00;;;4.62;100.00
36598;BME280;22607;49.550;11.940;2024-03-25T00:59:41;95763.50;;;4.65;100.00
36598;BME280;22607;49.550;11.940;2024-03-25T01:02:06;95762.69;;;4.81;100.00
36598;BME280;22607;49.550;11.940;2024-03-25T01:04:33;95768.03;;;4.71;100.00
36598;BME280;22607;49.550;11.940;2024-03-25T01:06:59;95760.06;;;4.72;100.00
36598;BME280;22607;49.550;11.940;2024-03-25T01:09:25;95747.06;;;4.64;100.00
36598;BME280;22607;49.550;11.940;2024-03-25T01:11:51;95755.19;;;4.61;100.00
36598;BME280;22607;49.550;11.940;2024-03-25T01:14:17;95761.38;;;4.77;100.00
36598;BME280;22607;49.550;11.940;2024-03-25T01:16:42;95742.84;;;4.63;100.00
36598;BME280;22607;49.550;11.940;2024-03-25T01:19:08;95757.13;;;4.59;100.00
36598;BME280;22607;49.550;11.940;2024-03-25T01:21:34;95746.75;;;4.67;100.00
36598;BME280;22607;49.550;11.940;2024-03-25T01:24:00;95750.31;;;4.58;100.00
36598;BME280;22607;49.550;11.940;2024-03-25T01:26:26;95738.59;;;4.54;100.00
36598;BME280;22607;49.550;11.940;2024-03-25T01:28:52;95738.44;;;4.55;100.00
36598;BME280;22607;49.550;11.940;2024-03-25T01:31:18;95741.38;;;4.52;100.00
36598;BME280;22607;49.550;11.940;2024-03-25T01:33:45;95744.63;;;4.79;100.00
36598;BME280;22607;49.550;11.940;2024-03-25T01:36:11;95759.44;;;4.70;100.00
36598;BME280;22607;49.550;11.940;2024-03-25T01:38:42;95751.59;;;4.54;100.00
36598;BME280;22607;49.550;11.940;2024-03-25T01:41:09;95765.09;;;4.41;100.00
36598;BME280;22607;49.550;11.940;2024-03-25T01:43:35;95755.66;;;4.56;100.00
36598;BME280;22607;49.550;11.940;2024-03-25T01:46:01;95764.28;;;4.57;100.00
36598;BME280;22607;49.550;11.940;2024-03-25T01:48:26;95756.97;;;4.60;100.00
36598;BME280;22607;49.550;11.940;2024-03-25T01:50:52;95761.88;;;4.64;100.00
36598;BME280;22607;49.550;11.940;2024-03-25T01:53:19;95750.50;;;4.73;100.00
36598;BME280;22607;49.550;11.940;2024-03-25T01:55:48;95756.66;;;4.64;100.00
36598;BME280;22607;49.550;11.940;2024-03-25T01:58:14;95769.34;;;4.58;100.00
36598;BME280;22607;49.550;11.940;2024-03-25T02:00:40;95762.84;;;4.63;100.00
36598;BME280;22607;49.550;11.940;2024-03-25T02:03:09;95754.38;;;4.52;100.00
36598;BME280;22607;49.550;11.940;2024-03-25T02:05:34;95756.16;;;4.43;100.00
36598;BME280;22607;49.550;11.940;2024-03-25T02:08:01;95765.78;;;4.68;100.00
36598;BME280;22607;49.550;11.940;2024-03-25T02:10:29;95772.09;;;4.73;100.00
36598;BME280;22607;49.550;11.940;2024-03-25T02:12:55;95770.81;;;4.78;100.00
36598;BME280;22607;49.550;11.940;2024-03-25T02:15:21;95771.16;;;4.75;100.00
36598;BME280;22607;49.550;11.940;2024-03-25T02:17:47;95774.56;;;4.83;100.00
36598;BME280;22607;49.550;11.940;2024-03-25T02:20:12;95769.69;;;4.72;100.00
36598;BME280;22607;49.550;11.940;2024-03-25T02:22:41;95765.25;;;4.64;100.00
36598;BME280;22607;49.550;11.940;2024-03-25T02:25:09;95783.13;;;4.59;100.00
36598;BME280;22607;49.550;11.940;2024-03-25T02:27:38;95768.22;;;4.69;100.00
36598;BME280;22607;49.550;11.940;2024-03-25T02:30:09;95782.50;;;4.73;100.00
36598;BME280;22607;49.550;11.940;2024-03-25T02:32:40;95778.28;;;4.72;100.00
36598;BME280;22607;49.550;11.940;2024-03-25T02:35:12;95778.94;;;4.75;100.00
36598;BME280;22607;49.550;11.940;2024-03-25T02:37:39;95790.50;;;4.72;100.00
36598;BME280;22607;49.550;11.940;2024-03-25T02:40:07;95766.84;;;4.40;100.00
36598;BME280;22607;49.550;11.940;2024-03-25T02:42:35;95767.88;;;4.64;100.00
36598;BME280;22607;49.550;11.940;2024-03-25T02:45:01;95774.38;;;4.68;100.00
36598;BME280;22607;49.550;11.940;2024-03-25T02:47:27;95780.69;;;4.57;100.00
36598;BME280;22607;49.550;11.940;2024-03-25T02:49:53;95777.31;;;4.82;100.00
36598;BME280;22607;49.550;11.940;2024-03-25T02:52:19;95782.19;;;4.77;100.00
36598;BME280;22607;49.550;11.940;2024-03-25T02:54:46;95785.75;;;4.59;100.00
36598;BME280;22607;49.550;11.940;2024-03-25T02:57:11;95794.22;;;4.61;100.00
36598;BME280;22607;49.550;11.940;2024-03-25T02:59:37;95795.22;;;4.85;100.00
36598;BME280;22607;49.550;11.940;2024-03-25T03:02:03;95791.28;;;4.56;100.00
36598;BME280;22607;49.550;11.940;2024-03-25T03:04:28;95791.28;;;4.72;100.00
36598;BME280;22607;49.550;11.940;2024-03-25T03:06:54;95795.84;;;4.62;100.00
36598;BME280;22607;49.550;11.940;2024-03-25T03:09:19;95778.44;;;4.54;100.00
36598;BME280;22607;49.550;11.940;2024-03-25T03:11:45;95787.88;;;4.64;100.00
36598;BME280;22607;49.550;11.940;2024-03-25T03:14:11;95782.16;;;4.52;100.00
36598;BME280;22607;49.550;11.940;2024-03-25T03:16:37;95780.88;;;4.56;100.00
36598;BME280;22607;49.550;11.940;2024-03-25T03:19:02;95789.00;;;4.61;100.00
36598;BME280;22607;49.550;11.940;2024-03-25T03:21:29;95801.69;;;4.72;100.00
36598;BME280;22607;49.550;11.940;2024-03-25T03:23:58;95806.59;;;4.84;100.00
36598;BME280;22607;49.550;11.940;2024-03-25T03:26:23;95814.06;;;4.70;100.00
36598;BME280;22607;49.550;11.940;2024-03-25T03:28:53;95806.56;;;4.59;100.00
36598;BME280;22607;49.550;11.940;2024-03-25T03:31:19;95795.34;;;4.58;100.00
36598;BME280;22607;49.550;11.940;2024-03-25T03:33:47;95810.44;;;4.55;100.00
36598;BME280;22607;49.550;11.940;2024-03-25T03:36:15;95791.91;;;4.50;100.00
36598;BME280;22607;49.550;11.940;2024-03-25T03:38:42;95798.75;;;4.67;100.00
36598;BME280;22607;49.550;11.940;2024-03-25T03:41:08;95814.22;;;4.69;100.00
36598;BME280;22607;49.550;11.940;2024-03-25T03:43:33;95816.63;;;4.62;100.00
36598;BME280;22607;49.550;11.940;2024-03-25T03:45:59;95809.78;;;4.53;100.00
36598;BME280;22607;49.550;11.940;2024-03-25T03:48:25;95808.84;;;4.70;100.00
36598;BME280;22607;49.550;11.940;2024-03-25T03:50:51;95817.00;;;4.76;100.00
36598;BME280;22607;49.550;11.940;2024-03-25T03:53:17;95823.50;;;4.80;100.00
36598;BME280;22607;49.550;11.940;2024-03-25T03:55:42;95810.13;;;4.58;100.00
36598;BME280;22607;49.550;11.940;2024-03-25T03:58:17;95805.59;;;4.68;100.00
36598;BME280;22607;49.550;11.940;2024-03-25T04:00:43;95801.19;;;4.60;100.00
36598;BME280;22607;49.550;11.940;2024-03-25T04:03:08;95815.34;;;4.66;100.00
36598;BME280;22607;49.550;11.940;2024-03-25T04:05:34;95808.19;;;4.60;100.00
36598;BME280;22607;49.550;11.940;2024-03-25T04:08:00;95824.13;;;4.57;100.00
36598;BME280;22607;49.550;11.940;2024-03-25T04:10:26;95826.06;;;4.63;100.00
36598;BME280;22607;49.550;11.940;2024-03-25T04:12:52;95813.56;;;4.75;100.00
36598;BME280;22607;49.550;11.940;2024-03-25T04:15:17;95813.38;;;4.52;100.00
36598;BME280;22607;49.550;11.940;2024-03-25T04:17:44;95820.22;;;4.61;100.00
36598;BME280;22607;49.550;11.940;2024-03-25T04:20:15;95823.81;;;4.60;100.00
36598;BME280;22607;49.550;11.940;2024-03-25T04:22:42;95810.78;;;4.52;100.00
36598;BME280;22607;49.550;11.940;2024-03-25T04:25:09;95794.19;;;4.53;100.00
36598;BME280;22607;49.550;11.940;2024-03-25T04:27:40;95837.28;;;4.64;100.00
36598;BME280;22607;49.550;11.940;2024-03-25T04:30:07;95836.81;;;4.77;100.00
36598;BME280;22607;49.550;11.940;2024-03-25T04:32:34;95837.75;;;4.59;100.00
36598;BME280;22607;49.550;11.940;2024-03-25T04:35:01;95825.41;;;4.53;100.00
36598;BME280;22607;49.550;11.940;2024-03-25T04:37:27;95847.78;;;4.45;100.00
36598;BME280;22607;49.550;11.940;2024-03-25T04:39:56;95843.59;;;4.53;100.00
36598;BME280;22607;49.550;11.940;2024-03-25T04:42:22;95849.13;;;4.58;100.00
36598;BME280;22607;49.550;11.940;2024-03-25T04:44:49;95849.81;;;4.60;100.00
36598;BME280;22607;49.550;11.940;2024-03-25T04:47:16;95858.53;;;4.42;100.00
36598;BME280;22607;49.550;11.940;2024-03-25T04:49:42;95861.97;;;4.51;100.00
36598;BME280;22607;49.550;11.940;2024-03-25T04:52:08;95864.59;;;4.59;100.00
36598;BME280;22607;49.550;11.940;2024-03-25T04:54:34;95867.03;;;4.61;100.00
36598;BME280;22607;49.550;11.940;2024-03-25T04:56:59;95873.38;;;4.58;100.00
36598;BME280;22607;49.550;11.940;2024-03-25T04:59:26;95876.34;;;4.72;100.00
36598;BME280;22607;49.550;11.940;2024-03-25T05:01:51;95876.13;;;4.57;100.00
36598;BME280;22607;49.550;11.940;2024-03-25T05:04:21;95862.47;;;4.63;100.00
36598;BME280;22607;49.550;11.940;2024-03-25T05:06:58;95881.25;;;4.40;100.00
36598;BME280;22607;49.550;11.940;2024-03-25T05:09:24;95884.41;;;4.60;100.00
36598;BME280;22607;49.550;11.940;2024-03-25T05:11:50;95875.19;;;4.66;100.00
36598;BME280;22607;49.550;11.940;2024-03-25T05:14:15;95884.03;;;4.47;100.00
36598;BME280;22607;49.550;11.940;2024-03-25T05:16:41;95894.00;;;4.52;100.00
36598;BME280;22607;49.550;11.940;2024-03-25T05:19:07;95885.13;;;4.36;100.00
36598;BME280;22607;49.550;11.940;2024-03-25T05:21:32;95894.59;;;4.45;100.00
36598;BME280;22607;49.550;11.940;2024-03-25T05:23:59;95892.53;;;4.57;100.00
36598;BME280;22607;49.550;11.940;2024-03-25T05:26:25;95884.72;;;4.49;100.00
36598;BME280;22607;49.550;11.940;2024-03-25T05:28:54;95896.75;;;4.50;100.00
36598;BME280;22607;49.550;11.940;2024-03-25T05:31:20;95901.50;;;4.63;100.00
36598;BME280;22607;49.550;11.940;2024-03-25T05:33:48;95888.59;;;4.45;100.00
36598;BME280;22607;49.550;11.940;2024-03-25T05:36:14;95903.72;;;4.50;100.00
36598;BME280;22607;49.550;11.940;2024-03-25T05:38:40;95907.34;;;4.57;100.00
36598;BME280;22607;49.550;11.940;2024-03-25T05:41:07;95897.88;;;4.47;100.00
36598;BME280;22607;49.550;11.940;2024-03-25T05:43:33;95905.38;;;4.59;100.00
36598;BME280;22607;49.550;11.940;2024-03-25T05:45:58;95895.31;;;4.56;100.00
36598;BME280;22607;49.550;11.940;2024-03-25T05:48:25;95906.38;;;4.66;100.00
36598;BME280;22607;49.550;11.940;2024-03-25T05:51:05;95924.41;;;4.59;100.00
36598;BME280;22607;49.550;11.940;2024-03-25T05:53:31;95915.94;;;4.57;100.00
36598;BME280;22607;49.550;11.940;2024-03-25T05:55:57;95912.22;;;4.60;100.00
36598;BME280;22607;49.550;11.940;2024-03-25T05:58:24;95915.16;;;4.65;100.00
36598;BME280;22607;49.550;11.940;2024-03-25T06:00:50;95908.75;;;4.51;100.00
36598;BME280;22607;49.550;11.940;2024-03-25T06:03:16;95916.13;;;4.64;100.00
36598;BME280;22607;49.550;11.940;2024-03-25T06:05:42;95919.66;;;4.55;100.00
36598;BME280;22607;49.550;11.940;2024-03-25T06:08:08;95920.78;;;4.52;100.00
36598;BME280;22607;49.550;11.940;2024-03-25T06:10:41;95929.13;;;4.64;100.00
36598;BME280;22607;49.550;11.940;2024-03-25T06:13:07;95932.22;;;4.59;100.00
36598;BME280;22607;49.550;11.940;2024-03-25T06:15:32;95926.34;;;4.57;100.00
36598;BME280;22607;49.550;11.940;2024-03-25T06:17:58;95935.59;;;4.52;100.00
36598;BME280;22607;49.550;11.940;2024-03-25T06:20:24;95923.84;;;4.39;100.00
36598;BME280;22607;49.550;11.940;2024-03-25T06:22:49;95934.28;;;4.47;100.00
36598;BME280;22607;49.550;11.940;2024-03-25T06:25:16;95938.56;;;4.65;100.00
36598;BME280;22607;49.550;11.940;2024-03-25T06:27:43;95935.34;;;4.71;100.00
36598;BME280;22607;49.550;11.940;2024-03-25T06:30:10;95946.44;;;4.82;100.00
36598;BME280;22607;49.550;11.940;2024-03-25T06:32:55;95958.13;;;4.78;100.00
36598;BME280;22607;49.550;11.940;2024-03-25T06:35:41;95957.16;;;4.79;100.00
36598;BME280;22607;49.550;11.940;2024-03-25T06:38:09;95962.06;;;4.90;100.00
36598;BME280;22607;49.550;11.940;2024-03-25T06:40:35;95939.19;;;4.51;100.00
36598;BME280;22607;49.550;11.940;2024-03-25T06:43:01;95951.94;;;4.70;100.00
36598;BME280;22607;49.550;11.940;2024-03-25T06:45:27;95949.03;;;4.82;100.00
36598;BME280;22607;49.550;11.940;2024-03-25T06:47:52;95964.38;;;4.93;100.00
36598;BME280;22607;49.550;11.940;2024-03-25T06:50:18;95969.75;;;5.00;100.00
36598;BME280;22607;49.550;11.940;2024-03-25T06:52:44;95975.56;;;4.94;100.00
36598;BME280;22607;49.550;11.940;2024-03-25T06:55:10;95965.84;;;5.04;100.00
36598;BME280;22607;49.550;11.940;2024-03-25T06:57:35;95978.88;;;5.12;100.00
36598;BME280;22607;49.550;11.940;2024-03-25T07:00:02;95977.06;;;5.05;100.00
36598;BME280;22607;49.550;11.940;2024-03-25T07:02:31;95982.66;;;5.27;100.00
36598;BME280;22607;49.550;11.940;2024-03-25T07:04:57;95979.03;;;5.11;100.00
36598;BME280;22607;49.550;11.940;2024-03-25T07:07:23;95977.09;;;5.13;100.00
36598;BME280;22607;49.550;11.940;2024-03-25T07:09:48;95977.91;;;5.22;100.00
36598;BME280;22607;49.550;11.940;2024-03-25T07:12:14;95992.59;;;5.31;100.00
36598;BME280;22607;49.550;11.940;2024-03-25T07:14:39;95981.88;;;5.43;100.00
36598;BME280;22607;49.550;11.940;2024-03-25T07:17:05;95976.16;;;5.39;100.00
36598;BME280;22607;49.550;11.940;2024-03-25T07:19:31;95978.94;;;5.46;100.00
36598;BME280;22607;49.550;11.940;2024-03-25T07:21:57;95985.78;;;5.47;100.00
36598;BME280;22607;49.550;11.940;2024-03-25T07:24:23;95986.94;;;5.86;100.00
36598;BME280;22607;49.550;11.940;2024-03-25T07:26:48;95994.28;;;5.65;100.00
36598;BME280;22607;49.550;11.940;2024-03-25T07:29:14;96001.63;;;5.87;100.00
36598;BME280;22607;49.550;11.940;2024-03-25T07:31:39;95980.75;;;5.70;100.00
36598;BME280;22607;49.550;11.940;2024-03-25T07:34:05;96001.63;;;6.20;100.00
36598;BME280;22607;49.550;11.940;2024-03-25T07:36:31;95998.28;;;6.51;100.00
36598;BME280;22607;49.550;11.940;2024-03-25T07:39:00;95996.19;;;6.38;100.00
36598;BME280;22607;49.550;11.940;2024-03-25T07:41:26;96000.00;;;6.19;100.00
36598;BME280;22607;49.550;11.940;2024-03-25T07:43:51;95994.59;;;6.29;100.00
36598;BME280;22607;49.550;11.940;2024-03-25T07:46:17;95999.41;;;6.57;100.00
36598;BME280;22607;49.550;11.940;2024-03-25T07:48:44;95998.94;;;6.62;100.00
36598;BME280;22607;49.550;11.940;2024-03-25T07:51:10;96007.56;;;6.62;100.00
36598;BME280;22607;49.550;11.940;2024-03-25T07:53:36;96001.09;;;6.50;100.00
36598;BME280;22607;49.550;11.940;2024-03-25T07:56:02;96003.75;;;6.81;100.00
36598;BME280;22607;49.550;11.940;2024-03-25T07:58:30;96000.72;;;7.01;100.00
36598;BME280;22607;49.550;11.940;2024-03-25T08:00:56;95997.88;;;7.19;100.00
36598;BME280;22607;49.550;11.940;2024-03-25T08:03:22;96011.13;;;7.73;100.00
36598;BME280;22607;49.550;11.940;2024-03-25T08:05:50;95992.50;;;7.68;97.24
36598;BME280;22607;49.550;11.940;2024-03-25T08:08:16;96006.28;;;8.23;94.43
36598;BME280;22607;49.550;11.940;2024-03-25T08:10:41;96002.53;;;8.41;95.50
36598;BME280;22607;49.550;11.940;2024-03-25T08:13:07;96007.91;;;8.78;92.59
36598;BME280;22607;49.550;11.940;2024-03-25T08:15:33;96003.00;;;9.42;88.36
36598;BME280;22607;49.550;11.940;2024-03-25T08:17:58;95996.84;;;9.71;77.33
36598;BME280;22607;49.550;11.940;2024-03-25T08:20:24;96011.94;;;9.48;80.97
36598;BME280;22607;49.550;11.940;2024-03-25T08:22:50;96002.25;;;9.26;82.34
36598;BME280;22607;49.550;11.940;2024-03-25T08:25:15;96007.06;;;8.77;78.20
36598;BME280;22607;49.550;11.940;2024-03-25T08:27:41;96008.63;;;8.57;85.63
36598;BME280;22607;49.550;11.940;2024-03-25T08:30:07;95997.69;;;8.53;84.07
36598;BME280;22607;49.550;11.940;2024-03-25T08:32:33;96015.00;;;8.84;86.77
36598;BME280;22607;49.550;11.940;2024-03-25T08:35:02;96009.59;;;8.71;77.65
36598;BME280;22607;49.550;11.940;2024-03-25T08:37:28;96022.16;;;8.22;84.19
36598;BME280;22607;49.550;11.940;2024-03-25T08:39:54;96030.63;;;7.85;84.58
36598;BME280;22607;49.550;11.940;2024-03-25T08:42:19;96018.53;;;7.84;85.71
36598;BME280;22607;49.550;11.940;2024-03-25T08:44:47;96020.94;;;8.09;83.59
36598;BME280;22607;49.550;11.940;2024-03-25T08:47:12;96025.84;;;8.12;83.68
36598;BME280;22607;49.550;11.940;2024-03-25T08:49:38;96012.38;;;8.00;78.96
36598;BME280;22607;49.550;11.940;2024-03-25T08:52:04;96023.38;;;8.49;77.82
36598;BME280;22607;49.550;11.940;2024-03-25T08:54:29;96008.88;;;8.62;79.56
36598;BME280;22607;49.550;11.940;2024-03-25T08:56:55;96023.16;;;8.59;78.39
36598;BME280;22607;49.550;11.940;2024-03-25T08:59:21;96026.22;;;8.63;76.41
36598;BME280;22607;49.550;11.940;2024-03-25T09:01:47;96014.53;;;7.97;77.25
36598;BME280;22607;49.550;11.940;2024-03-25T09:04:12;96021.91;;;7.93;80.23
36598;BME280;22607;49.550;11.940;2024-03-25T09:06:39;96023.00;;;7.99;81.69
36598;BME280;22607;49.550;11.940;2024-03-25T09:09:05;96031.13;;;8.43;80.64
36598;BME280;22607;49.550;11.940;2024-03-25T09:11:49;96023.91;;;8.45;76.83
36598;BME280;22607;49.550;11.940;2024-03-25T09:14:16;96013.59;;;8.66;74.37
36598;BME280;22607;49.550;11.940;2024-03-25T09:16:41;96020.56;;;8.51;68.11
36598;BME280;22607;49.550;11.940;2024-03-25T09:19:07;96022.72;;;8.32;72.99
36598;BME280;22607;49.550;11.940;2024-03-25T09:21:32;96018.84;;;8.66;70.97
36598;BME280;22607;49.550;11.940;2024-03-25T09:23:58;96002.31;;;8.81;70.37
36598;BME280;22607;49.550;11.940;2024-03-25T09:26:24;96014.41;;;8.82;66.84
36598;BME280;22607;49.550;11.940;2024-03-25T09:28:49;96010.78;;;8.53;65.81
36598;BME280;22607;49.550;11.940;2024-03-25T09:31:15;96005.25;;;8.48;66.84
36598;BME280;22607;49.550;11.940;2024-03-25T09:33:40;96007.88;;;8.48;67.54
36598;BME280;22607;49.550;11.940;2024-03-25T09:36:06;96004.41;;;8.32;69.24
36598;BME280;22607;49.550;11.940;2024-03-25T09:38:32;96009.53;;;8.25;70.86
36598;BME280;22607;49.550;11.940;2024-03-25T09:40:57;96016.22;;;7.90;73.00
36598;BME280;22607;49.550;11.940;2024-03-25T09:43:25;96030.94;;;8.29;72.28
36598;BME280;22607;49.550;11.940;2024-03-25T09:45:54;96018.47;;;8.31;73.76
36598;BME280;22607;49.550;11.940;2024-03-25T09:48:21;96009.75;;;8.00;69.69
36598;BME280;22607;49.550;11.940;2024-03-25T09:50:47;96023.00;;;8.76;69.21
36598;BME280;22607;49.550;11.940;2024-03-25T09:53:14;96016.59;;;10.11;67.52
36598;BME280;22607;49.550;11.940;2024-03-25T09:55:40;96024.72;;;10.45;63.55
36598;BME280;22607;49.550;11.940;2024-03-25T09:58:06;95993.69;;;11.53;64.99
36598;BME280;22607;49.550;11.940;2024-03-25T10:00:32;96011.97;;;10.70;61.96
36598;BME280;22607;49.550;11.940;2024-03-25T10:02:58;95994.47;;;9.98;62.83
36598;BME280;22607;49.550;11.940;2024-03-25T10:05:23;96010.03;;;10.00;62.94
36598;BME280;22607;49.550;11.940;2024-03-25T10:07:49;96001.72;;;9.75;60.87
36598;BME280;22607;49.550;11.940;2024-03-25T10:10:19;95988.16;;;9.49;60.77
36598;BME280;22607;49.550;11.940;2024-03-25T10:12:45;96009.50;;;9.90;60.99
36598;BME280;22607;49.550;11.940;2024-03-25T10:15:17;96007.44;;;9.63;60.00
36598;BME280;22607;49.550;11.940;2024-03-25T10:17:43;96005.22;;;9.60;61.37
36598;BME280;22607;49.550;11.940;2024-03-25T10:20:15;96010.63;;;9.22;59.95
36598;BME280;22607;49.550;11.940;2024-03-25T10:22:42;95996.16;;;8.89;62.07
36598;BME280;22607;49.550;11.940;2024-03-25T10:25:20;95977.91;;;8.96;61.00
36598;BME280;22607;49.550;11.940;2024-03-25T10:27:57;96007.75;;;9.16;62.74
36598;BME280;22607;49.550;11.940;2024-03-25T10:30:24;96011.19;;;9.17;64.02
36598;BME280;22607;49.550;11.940;2024-03-25T10:35:26;96004.81;;;8.89;61.09
36598;BME280;22607;49.550;11.940;2024-03-25T10:37:55;96008.72;;;8.78;59.08
36598;BME280;22607;49.550;11.940;2024-03-25T10:40:29;96005.81;;;9.03;60.59
36598;BME280;22607;49.550;11.940;2024-03-25T10:43:05;96007.50;;;9.11;58.72
36598;BME280;22607;49.550;11.940;2024-03-25T10:45:40;95996.94;;;9.04;60.40
36598;BME280;22607;49.550;11.940;2024-03-25T10:48:10;95996.50;;;9.01;61.37
36598;BME280;22607;49.550;11.940;2024-03-25T10:50:39;95991.38;;;9.66;59.67
36598;BME280;22607;49.550;11.940;2024-03-25T10:53:07;95976.63;;;9.65;60.86
36598;BME280;22607;49.550;11.940;2024-03-25T10:55:34;95986.84;;;9.82;57.09
36598;BME280;22607;49.550;11.940;2024-03-25T10:58:01;95987.31;;;9.85;59.83
36598;BME280;22607;49.550;11.940;2024-03-25T11:00:30;95974.06;;;9.50;58.56
36598;BME280;22607;49.550;11.940;2024-03-25T11:02:56;95974.88;;;9.94;57.46
36598;BME280;22607;49.550;11.940;2024-03-25T11:05:22;95980.75;;;9.75;57.10
36598;BME280;22607;49.550;11.940;2024-03-25T11:07:48;95961.56;;;9.96;59.43
36598;BME280;22607;49.550;11.940;2024-03-25T11:10:15;95962.28;;;10.75;58.42
36598;BME280;22607;49.550;11.940;2024-03-25T11:12:41;95960.75;;;10.95;55.24
36598;BME280;22607;49.550;11.940;2024-03-25T11:15:08;95952.47;;;11.67;52.57
36598;BME280;22607;49.550;11.940;2024-03-25T11:17:37;95942.34;;;11.84;52.55
36598;BME280;22607;49.550;11.940;2024-03-25T11:20:15;95951.94;;;11.16;53.15
36598;BME280;22607;49.550;11.940;2024-03-25T11:22:52;95942.78;;;10.98;51.72
36598;BME280;22607;49.550;11.940;2024-03-25T11:25:20;95943.75;;;10.84;49.73
36598;BME280;22607;49.550;11.940;2024-03-25T11:27:46;95926.31;;;10.41;49.77
36598;BME280;22607;49.550;11.940;2024-03-25T11:30:16;95934.97;;;10.06;52.88
36598;BME280;22607;49.550;11.940;2024-03-25T11:33:02;95937.41;;;10.07;53.69
36598;BME280;22607;49.550;11.940;2024-03-25T11:35:30;95940.78;;;9.72;53.40
36598;BME280;22607;49.550;11.940;2024-03-25T11:37:56;95929.84;;;9.91;53.71
36598;BME280;22607;49.550;11.940;2024-03-25T11:40:21;95925.44;;;10.27;51.26
36598;BME280;22607;49.550;11.940;2024-03-25T11:42:48;95932.00;;;10.09;53.04
36598;BME280;22607;49.550;11.940;2024-03-25T11:45:18;95934.66;;;10.44;52.80
36598;BME280;22607;49.550;11.940;2024-03-25T11:47:45;95928.81;;;10.84;53.89
36598;BME280;22607;49.550;11.940;2024-03-25T11:50:12;95917.44;;;11.33;54.53
36598;BME280;22607;49.550;11.940;2024-03-25T11:52:38;95909.31;;;11.27;52.81
36598;BME280;22607;49.550;11.940;2024-03-25T11:55:05;95922.69;;;11.39;51.58
36598;BME280;22607;49.550;11.940;2024-03-25T11:57:38;95909.63;;;10.97;51.67
36598;BME280;22607;49.550;11.940;2024-03-25T12:00:04;95899.94;;;10.91;52.56
36598;BME280;22607;49.550;11.940;2024-03-25T12:02:32;95916.31;;;10.44;50.26
36598;BME280;22607;49.550;11.940;2024-03-25T12:04:58;95908.91;;;10.33;50.27
36598;BME280;22607;49.550;11.940;2024-03-25T12:07:24;95907.81;;;10.49;51.07
36598;BME280;22607;49.550;11.940;2024-03-25T12:09:49;95905.47;;;10.61;50.75
36598;BME280;22607;49.550;11.940;2024-03-25T12:12:36;95905.00;;;10.50;49.38
36598;BME280;22607;49.550;11.940;2024-03-25T12:15:05;95897.91;;;10.93;51.79
36598;BME280;22607;49.550;11.940;2024-03-25T12:17:33;95890.28;;;11.19;52.14
36598;BME280;22607;49.550;11.940;2024-03-25T12:20:10;95896.16;;;11.27;48.98
36598;BME280;22607;49.550;11.940;2024-03-25T12:22:41;95889.28;;;10.57;50.16
36598;BME280;22607;49.550;11.940;2024-03-25T12:25:07;95902.28;;;10.72;48.62
36598;BME280;22607;49.550;11.940;2024-03-25T12:27:36;95895.84;;;10.82;51.39
36598;BME280;22607;49.550;11.940;2024-03-25T12:30:06;95894.31;;;10.52;50.08
36598;BME280;22607;49.550;11.940;2024-03-25T12:32:43;95891.59;;;10.81;52.89
36598;BME280;22607;49.550;11.940;2024-03-25T12:35:11;95901.16;;;11.09;52.65
36598;BME280;22607;49.550;11.940;2024-03-25T12:37:38;95886.66;;;11.26;50.81
36598;BME280;22607;49.550;11.940;2024-03-25T12:40:12;95889.06;;;11.08;52.59
36598;BME280;22607;49.550;11.940;2024-03-25T12:42:38;95884.38;;;10.96;51.19
36598;BME280;22607;49.550;11.940;2024-03-25T12:45:07;95882.16;;;11.00;51.04
36598;BME280;22607;49.550;11.940;2024-03-25T12:47:33;95882.47;;;10.63;49.62
36598;BME280;22607;49.550;11.940;2024-03-25T12:49:59;95885.69;;;10.65;49.94
36598;BME280;22607;49.550;11.940;2024-03-25T12:52:26;95876.88;;;10.93;50.19
36598;BME280;22607;49.550;11.940;2024-03-25T12:54:51;95868.41;;;10.91;50.79